Impacts TAF Board INFO
FOR SITUATIONAL AWARENESS. NOT TO BE USED FOR FLIGHT PLANNING PURPOSES.
IDs:

KDEN - Denver Intl, CO, US

Issued at 0805 UTC 18 Dec 2017
Updated at 0902 UTC 18 Dec 2017
Potential Impact None Slight Moderate High
Time0853Z 18/10Z 18/11Z 18/12Z 18/13Z 18/14Z 18/15Z 18/16Z 18/17Z 18/18Z 18/19Z 18/20Z 18/21Z 18/22Z>>
Type OBS PRVL PRVL PRVL PRVL PRVL PRVL PRVL PRVL PRVL PRVL PRVL PRVL PRVL
VIS 8 >6 >6 >6 >6 >6 >6 >6 >6 >6 >6 >6 >6 >6
CIG -- -- -- 220 220 220 220 220 220 220 -- -- -- --
Cover CLR SCT SCT BKN BKN BKN BKN BKN BKN BKN SCT SCT SCT SCT
FltCat VFR VFR VFR VFR VFR VFR VFR VFR VFR VFR VFR VFR VFR VFR
WX -- -- -- -- -- -- -- -- -- -- -- -- -- --
WDir 240 250 250 200 200 200 200 200 200 200 280 280 280 280
WSpd 7 8 8 8 8 8 8 8 8 8 9 9 9 9
WGst -- -- -- -- -- -- -- -- -- -- -- -- -- --

Raw TAF
KDEN 180805Z 1808/1912 30005KT P6SM SKC
  FM181000 25008KT P6SM SCT200
  FM181200 20008KT P6SM BKN220
  FM181900 28009KT P6SM FEW120 SCT220
  FM190200 23011KT P6SM FEW120 SCT220


Raw METAR
KDEN 180853Z 24007KT 8SM CLR M06/M08 A2997 RMK AO2 SLP162 T10561083 53009 $
KDEN 180753Z 30005KT 9SM CLR M03/M07 A2995 RMK AO2 SLP151 T10331072 $
KDEN 180653Z 23005KT 9SM CLR M05/M08 A2993 RMK AO2 SLP151 T10501083 400501056 $

METAR Board
Radar Display
Forecast Discussion

FOR SITUATIONAL AWARENESS. NOT TO BE USED FOR FLIGHT PLANNING PURPOSES.